sensor_id;sensor_type;location;lat;lon;timestamp;temperature;humidity
46117;DHT22;32591;48.102;11.772;2023-05-18T00:01:09;8.80;99.90
46117;DHT22;32591;48.102;11.772;2023-05-18T00:03:37;8.70;99.90
46117;DHT22;32591;48.102;11.772;2023-05-18T00:06:04;8.70;99.90
46117;DHT22;32591;48.102;11.772;2023-05-18T00:08:31;8.60;99.90
46117;DHT22;32591;48.102;11.772;2023-05-18T00:10:58;8.60;99.90
46117;DHT22;32591;48.102;11.772;2023-05-18T00:13:27;8.50;99.90
46117;DHT22;32591;48.102;11.772;2023-05-18T00:15:54;8.50;99.90
46117;DHT22;32591;48.102;11.772;2023-05-18T00:18:21;8.50;99.90
46117;DHT22;32591;48.102;11.772;2023-05-18T00:20:49;8.60;99.90
46117;DHT22;32591;48.102;11.772;2023-05-18T00:23:16;8.60;99.90
46117;DHT22;32591;48.102;11.772;2023-05-18T00:25:43;8.50;99.90
46117;DHT22;32591;48.102;11.772;2023-05-18T00:28:10;8.50;99.90
46117;DHT22;32591;48.102;11.772;2023-05-18T00:30:38;8.50;99.90
46117;DHT22;32591;48.102;11.772;2023-05-18T00:33:05;8.50;99.90
46117;DHT22;32591;48.102;11.772;2023-05-18T00:35:32;8.50;99.90
46117;DHT22;32591;48.102;11.772;2023-05-18T00:37:59;8.40;99.90
46117;DHT22;32591;48.102;11.772;2023-05-18T00:40:25;8.40;99.90
46117;DHT22;32591;48.102;11.772;2023-05-18T00:42:53;8.30;99.90
46117;DHT22;32591;48.102;11.772;2023-05-18T00:45:20;8.20;99.90
46117;DHT22;32591;48.102;11.772;2023-05-18T00:47:48;8.20;99.90
46117;DHT22;32591;48.102;11.772;2023-05-18T00:50:16;8.20;99.90
46117;DHT22;32591;48.102;11.772;2023-05-18T00:52:44;8.10;99.90
46117;DHT22;32591;48.102;11.772;2023-05-18T00:55:12;8.10;99.90
46117;DHT22;32591;48.102;11.772;2023-05-18T00:57:40;8.10;99.90
46117;DHT22;32591;48.102;11.772;2023-05-18T01:00:10;8.10;99.90
46117;DHT22;32591;48.102;11.772;2023-05-18T01:02:38;8.10;99.90
46117;DHT22;32591;48.102;11.772;2023-05-18T01:05:08;8.10;99.90
46117;DHT22;32591;48.102;11.772;2023-05-18T01:07:37;8.10;99.90
46117;DHT22;32591;48.102;11.772;2023-05-18T01:10:08;8.10;99.90
46117;DHT22;32591;48.102;11.772;2023-05-18T01:12:40;8.20;99.90
46117;DHT22;32591;48.102;11.772;2023-05-18T01:15:13;8.20;99.90
46117;DHT22;32591;48.102;11.772;2023-05-18T01:17:49;8.30;99.90
46117;DHT22;32591;48.102;11.772;2023-05-18T01:20:32;8.30;99.90
46117;DHT22;32591;48.102;11.772;2023-05-18T01:23:38;8.30;99.90
46117;DHT22;32591;48.102;11.772;2023-05-18T01:26:14;8.20;99.90
46117;DHT22;32591;48.102;11.772;2023-05-18T01:28:44;8.20;99.90
46117;DHT22;32591;48.102;11.772;2023-05-18T01:31:12;8.20;99.90
46117;DHT22;32591;48.102;11.772;2023-05-18T01:33:41;8.20;99.90
46117;DHT22;32591;48.102;11.772;2023-05-18T01:36:08;8.10;99.90
46117;DHT22;32591;48.102;11.772;2023-05-18T01:38:36;8.10;99.90
46117;DHT22;32591;48.102;11.772;2023-05-18T01:41:11;8.10;99.90
46117;DHT22;32591;48.102;11.772;2023-05-18T01:43:48;8.10;99.90
46117;DHT22;32591;48.102;11.772;2023-05-18T01:46:28;8.00;99.90
46117;DHT22;32591;48.102;11.772;2023-05-18T01:49:04;8.10;99.90
46117;DHT22;32591;48.102;11.772;2023-05-18T01:51:35;8.00;99.90
46117;DHT22;32591;48.102;11.772;2023-05-18T01:54:07;8.10;99.90
46117;DHT22;32591;48.102;11.772;2023-05-18T01:56:36;8.10;99.90
46117;DHT22;32591;48.102;11.772;2023-05-18T01:59:04;8.10;99.90
46117;DHT22;32591;48.102;11.772;2023-05-18T02:01:32;8.10;99.90
46117;DHT22;32591;48.102;11.772;2023-05-18T02:03:59;8.10;99.90
46117;DHT22;32591;48.102;11.772;2023-05-18T02:06:26;8.10;99.90
46117;DHT22;32591;48.102;11.772;2023-05-18T02:08:53;8.00;99.90
46117;DHT22;32591;48.102;11.772;2023-05-18T02:11:20;7.90;99.90
46117;DHT22;32591;48.102;11.772;2023-05-18T02:13:49;7.90;99.90
46117;DHT22;32591;48.102;11.772;2023-05-18T02:16:16;7.90;99.90
46117;DHT22;32591;48.102;11.772;2023-05-18T02:18:44;7.90;99.90
46117;DHT22;32591;48.102;11.772;2023-05-18T02:21:11;7.90;99.90
46117;DHT22;32591;48.102;11.772;2023-05-18T02:23:38;7.90;99.90
46117;DHT22;32591;48.102;11.772;2023-05-18T02:26:05;7.90;99.90
46117;DHT22;32591;48.102;11.772;2023-05-18T02:28:32;7.80;99.90
46117;DHT22;32591;48.102;11.772;2023-05-18T02:31:07;7.70;99.90
46117;DHT22;32591;48.102;11.772;2023-05-18T02:33:36;7.70;99.90
46117;DHT22;32591;48.102;11.772;2023-05-18T02:36:07;7.70;99.90
46117;DHT22;32591;48.102;11.772;2023-05-18T02:38:38;7.70;99.90
46117;DHT22;32591;48.102;11.772;2023-05-18T02:41:07;7.80;99.90
46117;DHT22;32591;48.102;11.772;2023-05-18T02:43:35;7.80;99.90
46117;DHT22;32591;48.102;11.772;2023-05-18T02:46:02;7.80;99.90
46117;DHT22;32591;48.102;11.772;2023-05-18T02:48:30;7.90;99.90
46117;DHT22;32591;48.102;11.772;2023-05-18T02:50:58;7.80;99.90
46117;DHT22;32591;48.102;11.772;2023-05-18T02:53:25;7.90;99.90
46117;DHT22;32591;48.102;11.772;2023-05-18T02:55:53;7.90;99.90
46117;DHT22;32591;48.102;11.772;2023-05-18T02:58:22;7.90;99.90
46117;DHT22;32591;48.102;11.772;2023-05-18T03:00:50;7.90;99.90
46117;DHT22;32591;48.102;11.772;2023-05-18T03:03:19;8.00;99.90
46117;DHT22;32591;48.102;11.772;2023-05-18T03:05:49;8.00;99.90
46117;DHT22;32591;48.102;11.772;2023-05-18T03:08:18;7.90;99.90
46117;DHT22;32591;48.102;11.772;2023-05-18T03:10:45;7.90;99.90
46117;DHT22;32591;48.102;11.772;2023-05-18T03:13:12;7.80;99.90
46117;DHT22;32591;48.102;11.772;2023-05-18T03:15:39;7.80;99.90
46117;DHT22;32591;48.102;11.772;2023-05-18T03:18:06;7.70;99.90
46117;DHT22;32591;48.102;11.772;2023-05-18T03:20:33;7.70;99.90
46117;DHT22;32591;48.102;11.772;2023-05-18T03:23:03;7.70;99.90
46117;DHT22;32591;48.102;11.772;2023-05-18T03:25:30;7.60;99.90
46117;DHT22;32591;48.102;11.772;2023-05-18T03:27:57;7.60;99.90
46117;DHT22;32591;48.102;11.772;2023-05-18T03:30:24;7.60;99.90
46117;DHT22;32591;48.102;11.772;2023-05-18T03:32:51;7.60;99.90
46117;DHT22;32591;48.102;11.772;2023-05-18T03:35:18;7.50;99.90
46117;DHT22;32591;48.102;11.772;2023-05-18T03:37:45;7.50;99.90
46117;DHT22;32591;48.102;11.772;2023-05-18T03:40:15;7.50;99.90
46117;DHT22;32591;48.102;11.772;2023-05-18T03:42:42;7.50;99.90
46117;DHT22;32591;48.102;11.772;2023-05-18T03:45:10;7.50;99.90
46117;DHT22;32591;48.102;11.772;2023-05-18T03:47:38;7.50;99.90
46117;DHT22;32591;48.102;11.772;2023-05-18T03:50:06;7.50;99.90
46117;DHT22;32591;48.102;11.772;2023-05-18T03:52:34;7.50;99.90
46117;DHT22;32591;48.102;11.772;2023-05-18T03:55:02;7.50;99.90
46117;DHT22;32591;48.102;11.772;2023-05-18T03:57:32;7.50;99.90
46117;DHT22;32591;48.102;11.772;2023-05-18T03:59:59;7.50;99.90
46117;DHT22;32591;48.102;11.772;2023-05-18T04:02:26;7.60;99.90
46117;DHT22;32591;48.102;11.772;2023-05-18T04:04:53;7.50;99.90
46117;DHT22;32591;48.102;11.772;2023-05-18T04:07:22;7.60;99.90
46117;DHT22;32591;48.102;11.772;2023-05-18T04:09:50;7.60;99.90
46117;DHT22;32591;48.102;11.772;2023-05-18T04:12:17;7.60;99.90
46117;DHT22;32591;48.102;11.772;2023-05-18T04:14:45;7.60;99.90
46117;DHT22;32591;48.102;11.772;2023-05-18T04:17:15;7.60;99.90
46117;DHT22;32591;48.102;11.772;2023-05-18T04:19:42;7.70;99.90
46117;DHT22;32591;48.102;11.772;2023-05-18T04:22:09;7.70;99.90
46117;DHT22;32591;48.102;11.772;2023-05-18T04:24:36;7.70;99.90
46117;DHT22;32591;48.102;11.772;2023-05-18T04:27:06;7.70;99.90
46117;DHT22;32591;48.102;11.772;2023-05-18T04:29:34;7.80;99.90
46117;DHT22;32591;48.102;11.772;2023-05-18T04:32:05;7.80;99.90
46117;DHT22;32591;48.102;11.772;2023-05-18T04:34:33;7.80;99.90
46117;DHT22;32591;48.102;11.772;2023-05-18T04:37:01;7.80;99.90
46117;DHT22;32591;48.102;11.772;2023-05-18T04:39:31;7.80;99.90
46117;DHT22;32591;48.102;11.772;2023-05-18T04:41:59;7.90;99.90
46117;DHT22;32591;48.102;11.772;2023-05-18T04:44:30;7.90;99.90
46117;DHT22;32591;48.102;11.772;2023-05-18T04:46:58;8.00;99.90
46117;DHT22;32591;48.102;11.772;2023-05-18T04:49:27;8.00;99.90
46117;DHT22;32591;48.102;11.772;2023-05-18T04:51:57;8.00;99.90
46117;DHT22;32591;48.102;11.772;2023-05-18T04:54:26;8.00;99.90
46117;DHT22;32591;48.102;11.772;2023-05-18T04:56:56;8.00;99.90
46117;DHT22;32591;48.102;11.772;2023-05-18T04:59:24;8.00;99.90
46117;DHT22;32591;48.102;11.772;2023-05-18T05:01:53;8.10;99.90
46117;DHT22;32591;48.102;11.772;2023-05-18T05:04:21;8.20;99.90
46117;DHT22;32591;48.102;11.772;2023-05-18T05:06:49;8.20;99.90
46117;DHT22;32591;48.102;11.772;2023-05-18T05:09:16;8.30;99.90
46117;DHT22;32591;48.102;11.772;2023-05-18T05:11:43;8.30;99.90
46117;DHT22;32591;48.102;11.772;2023-05-18T05:14:11;8.30;99.90
46117;DHT22;32591;48.102;11.772;2023-05-18T05:16:38;8.30;99.90
46117;DHT22;32591;48.102;11.772;2023-05-18T05:19:05;8.30;99.90
46117;DHT22;32591;48.102;11.772;2023-05-18T05:21:32;8.30;99.90
46117;DHT22;32591;48.102;11.772;2023-05-18T05:24:00;8.30;99.90
46117;DHT22;32591;48.102;11.772;2023-05-18T05:26:29;8.30;99.90
46117;DHT22;32591;48.102;11.772;2023-05-18T05:28:56;8.20;99.90
46117;DHT22;32591;48.102;11.772;2023-05-18T05:31:23;8.30;99.90
46117;DHT22;32591;48.102;11.772;2023-05-18T05:33:49;8.40;99.90
46117;DHT22;32591;48.102;11.772;2023-05-18T05:36:16;8.50;99.90
46117;DHT22;32591;48.102;11.772;2023-05-18T05:38:43;8.60;99.90
46117;DHT22;32591;48.102;11.772;2023-05-18T05:41:12;8.70;99.90
46117;DHT22;32591;48.102;11.772;2023-05-18T05:43:39;8.80;99.90
46117;DHT22;32591;48.102;11.772;2023-05-18T05:46:06;8.80;99.90
46117;DHT22;32591;48.102;11.772;2023-05-18T05:48:33;8.90;99.90
46117;DHT22;32591;48.102;11.772;2023-05-18T05:50:59;9.00;99.90
46117;DHT22;32591;48.102;11.772;2023-05-18T05:53:26;9.10;99.90
46117;DHT22;32591;48.102;11.772;2023-05-18T05:55:54;9.10;99.90
46117;DHT22;32591;48.102;11.772;2023-05-18T05:58:23;9.00;99.90
46117;DHT22;32591;48.102;11.772;2023-05-18T06:00:49;9.10;99.90
46117;DHT22;32591;48.102;11.772;2023-05-18T06:03:16;9.10;99.90
46117;DHT22;32591;48.102;11.772;2023-05-18T06:05:43;9.20;99.90
46117;DHT22;32591;48.102;11.772;2023-05-18T06:08:10;9.40;99.90
46117;DHT22;32591;48.102;11.772;2023-05-18T06:10:39;9.50;99.90
46117;DHT22;32591;48.102;11.772;2023-05-18T06:13:06;9.60;99.90
46117;DHT22;32591;48.102;11.772;2023-05-18T06:15:34;9.60;99.90
46117;DHT22;32591;48.102;11.772;2023-05-18T06:18:01;9.70;99.90
46117;DHT22;32591;48.102;11.772;2023-05-18T06:20:28;9.80;99.90
46117;DHT22;32591;48.102;11.772;2023-05-18T06:22:55;10.00;99.90
46117;DHT22;32591;48.102;11.772;2023-05-18T06:25:22;10.00;99.90
46117;DHT22;32591;48.102;11.772;2023-05-18T06:27:50;10.10;99.90
46117;DHT22;32591;48.102;11.772;2023-05-18T06:30:17;10.20;99.90
46117;DHT22;32591;48.102;11.772;2023-05-18T06:32:45;10.20;99.90
46117;DHT22;32591;48.102;11.772;2023-05-18T06:35:12;10.10;99.90
46117;DHT22;32591;48.102;11.772;2023-05-18T06:37:39;10.10;99.90
46117;DHT22;32591;48.102;11.772;2023-05-18T06:40:06;10.10;99.90
46117;DHT22;32591;48.102;11.772;2023-05-18T06:42:34;10.10;99.90
46117;DHT22;32591;48.102;11.772;2023-05-18T06:45:02;10.10;99.90
46117;DHT22;32591;48.102;11.772;2023-05-18T06:47:29;10.20;99.90
46117;DHT22;32591;48.102;11.772;2023-05-18T06:49:57;10.20;99.90
46117;DHT22;32591;48.102;11.772;2023-05-18T06:52:24;10.30;99.90
46117;DHT22;32591;48.102;11.772;2023-05-18T06:54:52;10.30;99.90
46117;DHT22;32591;48.102;11.772;2023-05-18T06:57:18;10.40;99.90
46117;DHT22;32591;48.102;11.772;2023-05-18T06:59:45;10.40;99.90
46117;DHT22;32591;48.102;11.772;2023-05-18T07:02:18;10.50;99.90
46117;DHT22;32591;48.102;11.772;2023-05-18T07:04:46;10.60;99.90
46117;DHT22;32591;48.102;11.772;2023-05-18T07:07:15;10.70;99.90
46117;DHT22;32591;48.102;11.772;2023-05-18T07:09:42;10.80;99.90
46117;DHT22;32591;48.102;11.772;2023-05-18T07:12:10;11.10;99.90
46117;DHT22;32591;48.102;11.772;2023-05-18T07:14:37;11.30;99.90
46117;DHT22;32591;48.102;11.772;2023-05-18T07:17:04;11.50;99.90
46117;DHT22;32591;48.102;11.772;2023-05-18T07:19:32;11.50;99.90
46117;DHT22;32591;48.102;11.772;2023-05-18T07:22:00;11.60;99.90
46117;DHT22;32591;48.102;11.772;2023-05-18T07:24:29;11.60;99.90
46117;DHT22;32591;48.102;11.772;2023-05-18T07:26:56;11.80;99.90
46117;DHT22;32591;48.102;11.772;2023-05-18T07:29:23;12.00;99.90
46117;DHT22;32591;48.102;11.772;2023-05-18T07:31:50;12.10;99.90
46117;DHT22;32591;48.102;11.772;2023-05-18T07:34:17;12.10;99.90
46117;DHT22;32591;48.102;11.772;2023-05-18T07:36:45;12.20;99.90
46117;DHT22;32591;48.102;11.772;2023-05-18T07:39:11;12.20;99.90
46117;DHT22;32591;48.102;11.772;2023-05-18T07:41:44;12.20;99.90
46117;DHT22;32591;48.102;11.772;2023-05-18T07:44:12;12.40;99.90
46117;DHT22;32591;48.102;11.772;2023-05-18T07:46:39;12.50;99.90
46117;DHT22;32591;48.102;11.772;2023-05-18T07:49:06;12.50;99.90
46117;DHT22;32591;48.102;11.772;2023-05-18T07:51:33;12.50;99.90
46117;DHT22;32591;48.102;11.772;2023-05-18T07:54:00;12.50;99.90
46117;DHT22;32591;48.102;11.772;2023-05-18T07:56:27;12.60;99.90
46117;DHT22;32591;48.102;11.772;2023-05-18T07:58:56;12.60;99.90
46117;DHT22;32591;48.102;11.772;2023-05-18T08:01:23;12.50;99.90
46117;DHT22;32591;48.102;11.772;2023-05-18T08:03:52;12.50;99.90
46117;DHT22;32591;48.102;11.772;2023-05-18T08:06:19;12.40;99.90
46117;DHT22;32591;48.102;11.772;2023-05-18T08:08:46;12.30;99.90
46117;DHT22;32591;48.102;11.772;2023-05-18T08:11:13;12.40;99.90
46117;DHT22;32591;48.102;11.772;2023-05-18T08:13:40;12.50;99.90
46117;DHT22;32591;48.102;11.772;2023-05-18T08:16:09;12.70;99.90
46117;DHT22;32591;48.102;11.772;2023-05-18T08:18:36;12.90;99.90
46117;DHT22;32591;48.102;11.772;2023-05-18T08:21:03;13.00;99.90
46117;DHT22;32591;48.102;11.772;2023-05-18T08:23:32;13.10;99.90
46117;DHT22;32591;48.102;11.772;2023-05-18T08:26:00;13.00;99.90
46117;DHT22;32591;48.102;11.772;2023-05-18T08:28:28;13.00;99.90
46117;DHT22;32591;48.102;11.772;2023-05-18T08:30:55;12.90;99.90
46117;DHT22;32591;48.102;11.772;2023-05-18T08:33:23;13.10;99.90
46117;DHT22;32591;48.102;11.772;2023-05-18T08:35:50;13.10;99.90
46117;DHT22;32591;48.102;11.772;2023-05-18T08:38:17;13.20;99.90
46117;DHT22;32591;48.102;11.772;2023-05-18T08:40:51;13.00;99.90
46117;DHT22;32591;48.102;11.772;2023-05-18T08:43:24;12.80;99.90
46117;DHT22;32591;48.102;11.772;2023-05-18T08:46:01;12.80;99.90
46117;DHT22;32591;48.102;11.772;2023-05-18T08:48:32;13.00;99.90
46117;DHT22;32591;48.102;11.772;2023-05-18T08:51:01;13.00;99.90
46117;DHT22;32591;48.102;11.772;2023-05-18T08:53:29;13.20;99.90
46117;DHT22;32591;48.102;11.772;2023-05-18T08:55:59;13.40;99.90
46117;DHT22;32591;48.102;11.772;2023-05-18T08:58:33;13.50;99.90
46117;DHT22;32591;48.102;11.772;2023-05-18T09:01:03;13.70;99.90
46117;DHT22;32591;48.102;11.772;2023-05-18T09:03:32;13.90;99.90
46117;DHT22;32591;48.102;11.772;2023-05-18T09:05:59;14.00;99.90
46117;DHT22;32591;48.102;11.772;2023-05-18T09:08:28;14.20;99.90
46117;DHT22;32591;48.102;11.772;2023-05-18T09:10:56;14.50;99.90
46117;DHT22;32591;48.102;11.772;2023-05-18T09:13:23;14.50;99.90
46117;DHT22;32591;48.102;11.772;2023-05-18T09:15:51;14.40;99.90
46117;DHT22;32591;48.102;11.772;2023-05-18T09:18:18;14.40;99.90
46117;DHT22;32591;48.102;11.772;2023-05-18T09:20:47;14.10;99.90
46117;DHT22;32591;48.102;11.772;2023-05-18T09:23:15;13.90;99.90
46117;DHT22;32591;48.102;11.772;2023-05-18T09:25:44;13.80;99.90
46117;DHT22;32591;48.102;11.772;2023-05-18T09:28:24;13.60;99.90
46117;DHT22;32591;48.102;11.772;2023-05-18T09:30:52;13.60;99.90
46117;DHT22;32591;48.102;11.772;2023-05-18T09:33:20;13.60;99.90
46117;DHT22;32591;48.102;11.772;2023-05-18T09:35:50;13.70;99.90
46117;DHT22;32591;48.102;11.772;2023-05-18T09:38:20;13.70;99.90
46117;DHT22;32591;48.102;11.772;2023-05-18T09:40:49;13.50;99.90
46117;DHT22;32591;48.102;11.772;2023-05-18T09:43:17;13.50;99.90
46117;DHT22;32591;48.102;11.772;2023-05-18T09:45:46;13.60;99.90
46117;DHT22;32591;48.102;11.772;2023-05-18T09:48:14;13.80;99.90
46117;DHT22;32591;48.102;11.772;2023-05-18T09:50:42;13.80;99.90
46117;DHT22;32591;48.102;11.772;2023-05-18T09:53:12;13.80;99.90
46117;DHT22;32591;48.102;11.772;2023-05-18T09:55:44;13.70;99.90
46117;DHT22;32591;48.102;11.772;2023-05-18T09:58:12;13.80;99.90
46117;DHT22;32591;48.102;11.772;2023-05-18T10:00:41;13.80;98.90
46117;DHT22;32591;48.102;11.772;2023-05-18T10:03:16;13.60;99.40
46117;DHT22;32591;48.102;11.772;2023-05-18T10:05:44;13.40;99.90
46117;DHT22;32591;48.102;11.772;2023-05-18T10:08:14;13.40;99.90
46117;DHT22;32591;48.102;11.772;2023-05-18T10:10:44;13.60;99.90
46117;DHT22;32591;48.102;11.772;2023-05-18T10:13:13;13.70;99.60
46117;DHT22;32591;48.102;11.772;2023-05-18T10:15:47;13.70;99.90
46117;DHT22;32591;48.102;11.772;2023-05-18T10:18:20;13.70;99.90
46117;DHT22;32591;48.102;11.772;2023-05-18T10:20:49;13.70;99.90
46117;DHT22;32591;48.102;11.772;2023-05-18T10:23:19;13.80;99.50
46117;DHT22;32591;48.102;11.772;2023-05-18T10:25:48;13.90;99.50
46117;DHT22;32591;48.102;11.772;2023-05-18T10:28:19;13.90;99.70
46117;DHT22;32591;48.102;11.772;2023-05-18T10:30:52;13.80;99.90
46117;DHT22;32591;48.102;11.772;2023-05-18T10:33:21;13.80;99.90
46117;DHT22;32591;48.102;11.772;2023-05-18T10:35:50;13.90;99.90
46117;DHT22;32591;48.102;11.772;2023-05-18T10:38:21;13.70;99.90
46117;DHT22;32591;48.102;11.772;2023-05-18T10:40:50;13.70;99.90
46117;DHT22;32591;48.102;11.772;2023-05-18T10:43:19;13.50;99.90
46117;DHT22;32591;48.102;11.772;2023-05-18T10:45:51;13.60;99.90
46117;DHT22;32591;48.102;11.772;2023-05-18T10:48:20;13.60;99.90
46117;DHT22;32591;48.102;11.772;2023-05-18T10:50:48;13.60;99.90
46117;DHT22;32591;48.102;11.772;2023-05-18T10:53:18;13.70;99.90
46117;DHT22;32591;48.102;11.772;2023-05-18T10:55:46;13.70;99.90
46117;DHT22;32591;48.102;11.772;2023-05-18T10:58:16;13.70;99.90
46117;DHT22;32591;48.102;11.772;2023-05-18T11:00:47;13.70;99.90
46117;DHT22;32591;48.102;11.772;2023-05-18T11:03:17;13.70;99.90
46117;DHT22;32591;48.102;11.772;2023-05-18T11:05:48;13.60;99.90
46117;DHT22;32591;48.102;11.772;2023-05-18T11:08:25;13.70;99.90
46117;DHT22;32591;48.102;11.772;2023-05-18T11:10:59;14.00;99.90
46117;DHT22;32591;48.102;11.772;2023-05-18T11:13:29;14.10;99.90
46117;DHT22;32591;48.102;11.772;2023-05-18T11:16:06;14.30;99.90
46117;DHT22;32591;48.102;11.772;2023-05-18T11:18:35;14.30;99.90
46117;DHT22;32591;48.102;11.772;2023-05-18T11:21:29;14.20;98.70
46117;DHT22;32591;48.102;11.772;2023-05-18T11:24:23;14.20;98.60
46117;DHT22;32591;48.102;11.772;2023-05-18T11:26:52;14.80;98.70
46117;DHT22;32591;48.102;11.772;2023-05-18T11:29:22;14.90;98.90
46117;DHT22;32591;48.102;11.772;2023-05-18T11:31:51;15.10;98.10
46117;DHT22;32591;48.102;11.772;2023-05-18T11:34:39;15.10;97.80
46117;DHT22;32591;48.102;11.772;2023-05-18T11:37:10;15.00;97.20
46117;DHT22;32591;48.102;11.772;2023-05-18T11:39:39;14.90;97.60
46117;DHT22;32591;48.102;11.772;2023-05-18T11:42:08;14.90;98.70
46117;DHT22;32591;48.102;11.772;2023-05-18T11:44:37;14.90;98.00
46117;DHT22;32591;48.102;11.772;2023-05-18T11:47:08;14.80;98.00
46117;DHT22;32591;48.102;11.772;2023-05-18T11:49:41;14.80;99.10
46117;DHT22;32591;48.102;11.772;2023-05-18T11:52:13;15.10;99.50
46117;DHT22;32591;48.102;11.772;2023-05-18T11:54:48;15.20;97.30
46117;DHT22;32591;48.102;11.772;2023-05-18T11:57:18;15.10;96.50
46117;DHT22;32591;48.102;11.772;2023-05-18T11:59:47;14.80;98.00
46117;DHT22;32591;48.102;11.772;2023-05-18T12:02:20;14.90;97.90
46117;DHT22;32591;48.102;11.772;2023-05-18T12:04:50;14.90;97.80
46117;DHT22;32591;48.102;11.772;2023-05-18T12:07:19;14.70;97.50
46117;DHT22;32591;48.102;11.772;2023-05-18T12:09:47;14.70;96.50
46117;DHT22;32591;48.102;11.772;2023-05-18T12:12:16;14.80;98.10
46117;DHT22;32591;48.102;11.772;2023-05-18T12:14:48;15.30;99.20
46117;DHT22;32591;48.102;11.772;2023-05-18T12:17:19;16.00;97.00
46117;DHT22;32591;48.102;11.772;2023-05-18T12:19:48;16.30;96.30
46117;DHT22;32591;48.102;11.772;2023-05-18T12:22:16;16.20;94.90
46117;DHT22;32591;48.102;11.772;2023-05-18T12:24:43;16.00;94.20
46117;DHT22;32591;48.102;11.772;2023-05-18T12:27:11;15.70;94.50
46117;DHT22;32591;48.102;11.772;2023-05-18T12:29:39;15.60;93.40
46117;DHT22;32591;48.102;11.772;2023-05-18T12:32:09;15.50;94.30
46117;DHT22;32591;48.102;11.772;2023-05-18T12:34:38;15.20;95.10
46117;DHT22;32591;48.102;11.772;2023-05-18T12:37:05;14.90;95.80
46117;DHT22;32591;48.102;11.772;2023-05-18T12:39:33;14.90;97.50
46117;DHT22;32591;48.102;11.772;2023-05-18T12:42:08;14.90;97.30
46117;DHT22;32591;48.102;11.772;2023-05-18T12:44:37;15.10;96.90
46117;DHT22;32591;48.102;11.772;2023-05-18T12:47:05;15.10;95.80
46117;DHT22;32591;48.102;11.772;2023-05-18T12:49:36;15.30;95.80
46117;DHT22;32591;48.102;11.772;2023-05-18T12:52:11;15.50;97.50
46117;DHT22;32591;48.102;11.772;2023-05-18T12:54:49;15.50;95.00
46117;DHT22;32591;48.102;11.772;2023-05-18T12:57:24;15.50;95.80
46117;DHT22;32591;48.102;11.772;2023-05-18T12:59:52;15.10;94.90
46117;DHT22;32591;48.102;11.772;2023-05-18T13:02:30;15.10;99.60
46117;DHT22;32591;48.102;11.772;2023-05-18T13:05:03;15.10;96.20
46117;DHT22;32591;48.102;11.772;2023-05-18T13:07:31;14.90;96.50
46117;DHT22;32591;48.102;11.772;2023-05-18T13:10:04;14.80;97.90
46117;DHT22;32591;48.102;11.772;2023-05-18T13:12:37;14.90;97.10
46117;DHT22;32591;48.102;11.772;2023-05-18T13:15:09;14.80;97.30
46117;DHT22;32591;48.102;11.772;2023-05-18T13:17:37;14.80;96.80
46117;DHT22;32591;48.102;11.772;2023-05-18T13:20:11;14.80;97.20
46117;DHT22;32591;48.102;11.772;2023-05-18T13:22:39;14.70;98.00
46117;DHT22;32591;48.102;11.772;2023-05-18T13:25:07;14.60;97.40
46117;DHT22;32591;48.102;11.772;2023-05-18T13:27:34;14.50;97.30
46117;DHT22;32591;48.102;11.772;2023-05-18T13:30:03;14.60;97.70
46117;DHT22;32591;48.102;11.772;2023-05-18T13:32:30;14.70;97.30
46117;DHT22;32591;48.102;11.772;2023-05-18T13:34:58;14.60;97.10
46117;DHT22;32591;48.102;11.772;2023-05-18T13:37:25;14.60;98.20
46117;DHT22;32591;48.102;11.772;2023-05-18T13:39:52;14.60;98.20
46117;DHT22;32591;48.102;11.772;2023-05-18T13:42:19;14.70;97.70
46117;DHT22;32591;48.102;11.772;2023-05-18T13:44:46;14.70;97.50
46117;DHT22;32591;48.102;11.772;2023-05-18T13:47:15;14.70;97.90
46117;DHT22;32591;48.102;11.772;2023-05-18T13:49:42;14.70;97.90
46117;DHT22;32591;48.102;11.772;2023-05-18T13:52:09;14.70;99.40
46117;DHT22;32591;48.102;11.772;2023-05-18T13:54:36;14.70;99.40
46117;DHT22;32591;48.102;11.772;2023-05-18T13:57:03;14.50;99.50
46117;DHT22;32591;48.102;11.772;2023-05-18T13:59:32;14.40;98.80
46117;DHT22;32591;48.102;11.772;2023-05-18T14:02:00;14.30;99.90
46117;DHT22;32591;48.102;11.772;2023-05-18T14:04:28;14.40;99.70
46117;DHT22;32591;48.102;11.772;2023-05-18T14:06:55;14.30;99.80
46117;DHT22;32591;48.102;11.772;2023-05-18T14:09:23;14.20;99.20
46117;DHT22;32591;48.102;11.772;2023-05-18T14:11:52;14.00;99.90
46117;DHT22;32591;48.102;11.772;2023-05-18T14:14:19;14.00;99.90
46117;DHT22;32591;48.102;11.772;2023-05-18T14:16:47;14.00;99.90
46117;DHT22;32591;48.102;11.772;2023-05-18T14:19:14;14.00;99.90
46117;DHT22;32591;48.102;11.772;2023-05-18T14:21:42;13.90;99.90
46117;DHT22;32591;48.102;11.772;2023-05-18T14:24:09;13.90;99.90
46117;DHT22;32591;48.102;11.772;2023-05-18T14:26:36;14.00;99.90
46117;DHT22;32591;48.102;11.772;2023-05-18T14:29:03;14.00;99.90
46117;DHT22;32591;48.102;11.772;2023-05-18T14:31:30;14.00;99.90
46117;DHT22;32591;48.102;11.772;2023-05-18T14:33:58;14.10;99.90
46117;DHT22;32591;48.102;11.772;2023-05-18T14:36:24;14.10;99.90
46117;DHT22;32591;48.102;11.772;2023-05-18T14:38:53;14.10;99.90
46117;DHT22;32591;48.102;11.772;2023-05-18T14:41:20;14.10;99.90
46117;DHT22;32591;48.102;11.772;2023-05-18T14:43:47;14.10;99.90
46117;DHT22;32591;48.102;11.772;2023-05-18T14:46:15;14.00;99.90
46117;DHT22;32591;48.102;11.772;2023-05-18T14:48:42;13.90;99.90
46117;DHT22;32591;48.102;11.772;2023-05-18T14:51:09;13.90;99.90
46117;DHT22;32591;48.102;11.772;2023-05-18T14:53:37;13.90;99.90
46117;DHT22;32591;48.102;11.772;2023-05-18T14:56:06;13.90;99.90
46117;DHT22;32591;48.102;11.772;2023-05-18T14:58:34;14.00;99.90
46117;DHT22;32591;48.102;11.772;2023-05-18T15:01:01;14.40;99.90
46117;DHT22;32591;48.102;11.772;2023-05-18T15:03:28;14.40;99.90
46117;DHT22;32591;48.102;11.772;2023-05-18T15:05:55;14.30;99.90
46117;DHT22;32591;48.102;11.772;2023-05-18T15:08:22;14.10;99.90
46117;DHT22;32591;48.102;11.772;2023-05-18T15:10:50;14.00;99.90
46117;DHT22;32591;48.102;11.772;2023-05-18T15:13:18;13.90;99.90
46117;DHT22;32591;48.102;11.772;2023-05-18T15:15:46;13.90;99.90
46117;DHT22;32591;48.102;11.772;2023-05-18T15:18:13;13.90;99.90
46117;DHT22;32591;48.102;11.772;2023-05-18T15:20:40;13.80;99.90
46117;DHT22;32591;48.102;11.772;2023-05-18T15:23:08;13.60;99.90
46117;DHT22;32591;48.102;11.772;2023-05-18T15:25:35;13.60;99.90
46117;DHT22;32591;48.102;11.772;2023-05-18T15:28:02;13.60;99.90
46117;DHT22;32591;48.102;11.772;2023-05-18T15:30:31;13.70;99.90
46117;DHT22;32591;48.102;11.772;2023-05-18T15:32:58;13.70;99.90